elaragueno.com.ve alexa rank chart, elaragueno.com.ve alexa rank daily changes

elaragueno.com.ve alexa rank chart, elaragueno.com.ve alexa rank daily changes

elaragueno.com.ve
Actual rank:
164 069

RANK HISTORY

Date Rank Diff
2018/06/19 164 069 -37 629
2018/06/18 201 698 -80 241
2018/06/17 281 939 +81 559
2018/06/16 200 380 -7 330
2018/06/15 207 710 -16 531
2018/06/14 224 241 +28 018
2018/06/13 196 223 +23 585
2018/06/12 172 638 -228 620
2018/06/11 401 258 +128 258
2018/06/10 273 000 -26 346
2018/06/09 299 346 -79 509
2018/06/08 378 855 -533 467
2018/06/07 912 322 -42 633
2018/06/04 954 955 +310 103
2018/06/03 644 852 +366 345
2018/06/02 278 507 -241 111
2018/06/01 519 618 +88 626
2018/05/31 430 992 -462 115
2018/05/29 893 107 +700 708
2018/05/26 192 399 -27 182
2018/05/25 219 581 -134 181
2018/05/24 353 762 +193 386
2018/05/23 160 376 -497 052
2018/05/19 657 428 +472 309
2018/05/17 185 119 +25 103
2018/05/16 160 016 -11 577
2018/05/15 171 593 +24 763
2018/05/14 146 830 -89 725
2018/05/13 236 555 -31 293
2018/05/12 267 848 +132 402
2018/05/11 135 446 -50 577
2018/05/10 186 023 -11 040
2018/05/09 197 063 +103 437
2018/05/08 93 626 -92 950
2018/05/07 186 576 -22 879
2018/05/06 209 455 -23 382
2018/05/05 232 837 +96 554
2018/05/04 136 283 -26 653
2018/05/03 162 936 -24 580
2018/05/02 187 516 -61 101
2018/05/01 248 617 +97 875
2018/04/30 150 742 -3 128
2018/04/29 153 870 +25 909
2018/04/28 127 961 -74 775
2018/04/27 202 736 +41 251
2018/04/26 161 485 -3 467
2018/04/25 164 952 -19 753
2018/04/24 184 705 -18 031
2018/04/23 202 736 +33 160
2018/04/22 169 576 +33 755
2018/04/21 135 821 -20 170
2018/04/20 155 991

WIDGET FOR YOUR SITE

DOMAINS WITH THE NEAREST RANK

Domain Rank
spacedesk.net 164 064
tvz.hr 164 065
creativeaccess.org.uk 164 066
home-made-videos.com 164 067
kpn.com 164 068
elaragueno.com.ve 164 069
smart-ip-tv.com 164 070
ltcmania.com 164 071
nych.info 164 072
volgmed.ru 164 073
fukab.com 164 074

DOMAINS WITH THE NEAREST RANK BY TLD .com.ve

Domain Rank
radioagn.com.ve 156 630
elperiodicodemonagas.com.ve 159 264
datoshipicos.com.ve 162 964
elaragueno.com.ve 164 069
bavenlinea.com.ve 167 454
elinformador.com.ve 167 727
elsoldemargarita.com.ve 168 470